Time;durP1;ratioP1;P1;durP2;ratioP2;P2;SDS_P1;SDS_P2;PMS_P1;PMS_P2;Temp;Humidity;BMP_temperature;BMP_pressure;BME280_temperature;BME280_humidity;BME280_pressure;Samples;Min_cycle;Max_cycle;Signal;HPM_P1;HPM_P2
2023/01/24 00:04:02;;;;;;;16.30;14.60;;;22.20;61.50;;;;;;221776;1263;22536;-51
2023/01/24 00:09:06;;;;;;;16.80;14.90;;;22.10;61.60;;;;;;221686;1263;22602;-50
2023/01/24 00:14:10;;;;;;;17.40;14.00;;;22.10;61.60;;;;;;221864;1262;22703;-49
2023/01/24 00:19:14;;;;;;;18.00;14.70;;;22.00;61.40;;;;;;221583;1256;22517;-51
2023/01/24 00:24:18;;;;;;;16.70;15.00;;;22.00;61.50;;;;;;221765;1247;22541;-49
2023/01/24 00:29:22;;;;;;;18.10;13.60;;;22.00;61.40;;;;;;221809;1263;22529;-49
2023/01/24 00:34:27;;;;;;;16.80;15.10;;;21.90;61.20;;;;;;221881;1270;24189;-50
2023/01/24 00:39:31;;;;;;;16.00;13.80;;;21.90;61.20;;;;;;221723;1267;26451;-52
2023/01/24 00:44:35;;;;;;;15.40;13.90;;;21.90;61.00;;;;;;221710;1267;22579;-49
2023/01/24 00:49:39;;;;;;;16.00;14.40;;;21.90;61.40;;;;;;221607;1270;22546;-50
2023/01/24 00:54:43;;;;;;;16.30;14.70;;;21.80;60.90;;;;;;221781;1257;24283;-50
2023/01/24 00:59:48;;;;;;;17.60;14.80;;;21.80;60.90;;;;;;229841;1267;22173;-51
2023/01/24 01:04:52;;;;;;;17.30;13.70;;;22.20;59.80;;;;;;229863;1263;22269;-51
2023/01/24 01:09:57;;;;;;;14.90;13.30;;;22.70;58.40;;;;;;223495;1263;22528;-51
2023/01/24 01:15:02;;;;;;;15.30;13.60;;;23.00;57.80;;;;;;221592;1247;24231;-49
2023/01/24 01:20:08;;;;;;;16.40;13.70;;;22.70;58.50;;;;;;221979;1260;24269;-49
2023/01/24 01:25:13;;;;;;;15.50;13.90;;;22.70;58.80;;;;;;221686;1270;24277;-51
2023/01/24 01:30:17;;;;;;;14.00;12.60;;;22.60;58.80;;;;;;221792;1266;24222;-50
2023/01/24 01:35:21;;;;;;;15.00;13.20;;;22.70;58.70;;;;;;221713;1251;24237;-51
2023/01/24 01:40:26;;;;;;;14.10;12.70;;;22.60;58.80;;;;;;221724;1267;22520;-52
2023/01/24 01:45:44;;;;;;;14.10;12.60;;;22.70;58.40;;;;;;221938;1271;22541;-51
2023/01/24 01:51:18;;;;;;;14.50;12.90;;;22.80;58.70;;;;;;221810;1262;26202;-51
2023/01/24 01:56:40;;;;;;;14.00;12.60;;;23.00;57.60;;;;;;221707;1259;24658;-51
2023/01/24 02:01:47;;;;;;;14.90;12.80;;;23.20;57.20;;;;;;221665;1263;24212;-50
2023/01/24 02:07:01;;;;;;;14.30;12.90;;;23.20;57.00;;;;;;221619;1267;22555;-49
2023/01/24 02:12:10;;;;;;;14.40;13.00;;;23.20;56.80;;;;;;221467;1259;240569;-49
2023/01/24 02:17:20;;;;;;;14.30;12.80;;;23.30;56.50;;;;;;222032;1263;22524;-50
2023/01/24 02:22:43;;;;;;;13.00;11.70;;;23.30;56.80;;;;;;221759;1253;22611;-48
2023/01/24 02:27:47;;;;;;;14.90;13.20;;;23.30;56.40;;;;;;221770;1269;22523;-49
2023/01/24 02:32:51;;;;;;;13.30;12.00;;;23.20;56.50;;;;;;221760;1264;22546;-50
2023/01/24 02:38:03;;;;;;;13.50;11.50;;;23.30;56.30;;;;;;221795;1257;23428;-52
2023/01/24 02:43:10;;;;;;;12.70;11.40;;;23.30;56.30;;;;;;221614;1259;25239;-50
2023/01/24 02:48:14;;;;;;;14.40;11.80;;;23.40;56.10;;;;;;221679;1256;25438;-51
2023/01/24 02:53:31;;;;;;;13.90;12.00;;;23.40;56.10;;;;;;221765;1250;22544;-48
2023/01/24 02:58:35;;;;;;;12.60;11.30;;;23.30;56.20;;;;;;222092;1266;22546;-52
2023/01/24 03:03:43;;;;;;;13.30;11.90;;;23.30;56.60;;;;;;221690;1257;27736;-51
2023/01/24 03:08:47;;;;;;;12.10;10.80;;;23.40;56.00;;;;;;221891;1266;22568;-50
2023/01/24 03:35:53;;;;;;;13.10;11.50;;;23.50;55.30;;;;;;221660;1269;22715;-50
2023/01/24 03:41:02;;;;;;;11.80;10.70;;;23.50;55.80;;;;;;221595;1270;22541;-52
2023/01/24 03:46:06;;;;;;;12.40;11.00;;;23.50;55.20;;;;;;221836;1268;22544;-51
2023/01/24 03:56:45;;;;;;;12.80;11.30;;;23.60;55.00;;;;;;221640;1267;22543;-51
2023/01/24 04:01:52;;;;;;;11.20;10.20;;;23.60;55.10;;;;;;221650;1260;24244;-53
2023/01/24 04:07:05;;;;;;;12.30;11.10;;;23.70;54.90;;;;;;221663;1250;26504;-53
2023/01/24 04:12:28;;;;;;;12.90;11.50;;;23.70;54.70;;;;;;221882;1260;23905;-49
2023/01/24 04:17:33;;;;;;;12.50;11.20;;;23.70;54.60;;;;;;221898;1257;22624;-54
2023/01/24 04:22:40;;;;;;;12.10;10.90;;;23.80;54.50;;;;;;221884;1264;25278;-53
2023/01/24 04:27:44;;;;;;;11.60;10.30;;;23.80;54.60;;;;;;221723;1271;26640;-51
2023/01/24 04:32:50;;;;;;;12.00;10.80;;;23.80;54.60;;;;;;221785;1257;24698;-51
2023/01/24 04:38:01;;;;;;;11.70;10.50;;;23.80;54.80;;;;;;221862;1270;23866;-53
2023/01/24 04:43:13;;;;;;;11.10;10.00;;;23.70;54.50;;;;;;221967;1267;24240;-52
2023/01/24 04:48:20;;;;;;;11.70;10.60;;;23.60;54.90;;;;;;221708;1270;23874;-53
2023/01/24 04:53:24;;;;;;;12.70;11.50;;;23.60;54.90;;;;;;221914;1269;22526;-47
2023/01/24 04:58:30;;;;;;;11.20;10.10;;;23.40;55.30;;;;;;221839;1270;23873;-51
2023/01/24 05:03:34;;;;;;;13.00;11.70;;;23.20;55.10;;;;;;221934;1246;24205;-51
2023/01/24 05:08:38;;;;;;;12.20;11.10;;;23.20;55.30;;;;;;221928;1271;22523;-51
2023/01/24 05:13:43;;;;;;;11.90;10.60;;;23.10;55.50;;;;;;221952;1263;24169;-51
2023/01/24 05:18:47;;;;;;;12.30;11.20;;;23.00;55.40;;;;;;221940;1259;25344;-49
2023/01/24 05:23:53;;;;;;;11.90;10.70;;;22.90;56.00;;;;;;221816;1269;25555;-51
2023/01/24 05:28:59;;;;;;;12.40;10.80;;;22.80;55.80;;;;;;221894;1269;22639;-50
2023/01/24 05:34:05;;;;;;;12.60;11.30;;;22.70;56.00;;;;;;221845;1266;22653;-51
2023/01/24 05:39:09;;;;;;;11.90;10.70;;;22.70;56.10;;;;;;221891;1252;23902;-53
2023/01/24 05:44:13;;;;;;;12.00;10.80;;;22.60;56.20;;;;;;221836;1264;22658;-52
2023/01/24 05:49:18;;;;;;;13.00;11.80;;;22.50;56.30;;;;;;221771;1263;23327;-49
2023/01/24 05:54:22;;;;;;;11.90;10.70;;;22.40;56.80;;;;;;221856;1257;24202;-50
2023/01/24 05:59:35;;;;;;;11.90;10.80;;;22.40;56.60;;;;;;221783;1259;22583;-50
2023/01/24 06:04:41;;;;;;;13.60;11.50;;;22.30;56.60;;;;;;221799;1256;25494;-49
2023/01/24 06:09:45;;;;;;;12.40;11.20;;;22.30;56.80;;;;;;221985;1263;22665;-50
2023/01/24 06:14:50;;;;;;;12.20;11.00;;;22.20;56.80;;;;;;222105;1269;22912;-50
2023/01/24 06:19:54;;;;;;;12.20;11.00;;;22.10;56.90;;;;;;221750;1269;24324;-46
2023/01/24 06:24:59;;;;;;;12.10;11.00;;;22.10;56.90;;;;;;221848;1266;22527;-47
2023/01/24 06:30:06;;;;;;;12.00;10.80;;;22.00;57.20;;;;;;221872;1254;25331;-49
2023/01/24 06:35:36;;;;;;;12.00;10.70;;;22.00;56.90;;;;;;222017;1260;24063;-51
2023/01/24 06:40:40;;;;;;;12.60;11.20;;;22.00;56.90;;;;;;221902;1255;22737;-55
2023/01/24 06:45:45;;;;;;;12.80;11.50;;;21.90;56.80;;;;;;221996;1270;24169;-53
2023/01/24 06:50:49;;;;;;;11.60;10.30;;;21.90;56.90;;;;;;221899;1263;22643;-52
2023/01/24 06:55:53;;;;;;;13.00;11.70;;;22.00;57.20;;;;;;221891;1266;22661;-47
2023/01/24 07:00:58;;;;;;;13.00;10.80;;;22.40;56.60;;;;;;221823;1269;22687;-49
2023/01/24 07:06:02;;;;;;;12.50;10.80;;;22.60;56.10;;;;;;221719;1267;22759;-48
2023/01/24 07:11:06;;;;;;;12.30;11.00;;;22.70;56.00;;;;;;221848;1263;25717;-51
2023/01/24 07:16:10;;;;;;;11.70;10.50;;;22.80;55.90;;;;;;221997;1266;22772;-49
2023/01/24 07:21:15;;;;;;;10.90;9.90;;;22.90;56.00;;;;;;221840;1260;24085;-51
2023/01/24 07:26:19;;;;;;;12.70;10.20;;;23.00;56.10;;;;;;221944;1264;22535;-49
2023/01/24 07:31:23;;;;;;;13.70;10.40;;;23.00;56.60;;;;;;221924;1263;22535;-47
2023/01/24 07:36:28;;;;;;;11.60;10.50;;;23.10;56.50;;;;;;222050;1263;25472;-48
2023/01/24 07:41:32;;;;;;;18.20;10.90;;;23.10;56.30;;;;;;221934;1269;22628;-48
2023/01/24 07:46:37;;;;;;;11.40;10.00;;;23.20;56.10;;;;;;221814;1263;22513;-48
2023/01/24 07:51:42;;;;;;;14.30;11.00;;;23.20;56.30;;;;;;221847;1270;24237;-49
2023/01/24 07:56:46;;;;;;;17.40;11.10;;;23.20;56.10;;;;;;221895;1263;25470;-50
2023/01/24 08:01:50;;;;;;;14.00;9.90;;;23.10;55.90;;;;;;221720;1267;25034;-50
2023/01/24 08:12:17;;;;;;;16.90;10.40;;;23.20;56.10;;;;;;221719;1271;22741;-48
2023/01/24 08:17:22;;;;;;;11.10;10.00;;;23.10;55.10;;;;;;222066;1270;22594;-48
2023/01/24 08:22:26;;;;;;;12.40;10.70;;;23.10;55.20;;;;;;221932;1256;22621;-51
2023/01/24 08:27:30;;;;;;;15.30;10.70;;;23.20;55.00;;;;;;221554;1270;24212;-48
2023/01/24 08:32:34;;;;;;;18.80;12.10;;;23.20;54.90;;;;;;221931;1270;22673;-50
2023/01/24 08:37:38;;;;;;;14.60;11.20;;;23.10;55.60;;;;;;221987;1270;22695;-49
2023/01/24 08:42:42;;;;;;;13.00;10.70;;;23.20;54.70;;;;;;221982;1260;22525;-51
2023/01/24 08:47:52;;;;;;;12.90;11.20;;;23.20;54.40;;;;;;222133;1259;22550;-56
2023/01/24 08:52:57;;;;;;;11.30;10.00;;;23.30;54.80;;;;;;221667;1255;23876;-54
2023/01/24 08:58:03;;;;;;;13.00;10.80;;;23.40;54.20;;;;;;221873;1270;22533;-54
2023/01/24 09:10:34;;;;;;;11.70;10.50;;;23.50;54.40;;;;;;221703;1257;24070;-51
2023/01/24 09:15:38;;;;;;;11.50;10.40;;;23.30;54.10;;;;;;221658;1248;22831;-55
2023/01/24 09:20:43;;;;;;;13.20;11.00;;;23.30;54.10;;;;;;221776;1264;24460;-56
2023/01/24 09:25:52;;;;;;;12.10;11.00;;;23.30;54.00;;;;;;221801;1263;22641;-52
2023/01/24 09:30:56;;;;;;;12.80;11.20;;;23.10;54.00;;;;;;221821;1270;22546;-53
2023/01/24 09:36:02;;;;;;;13.10;10.60;;;23.00;54.10;;;;;;222135;1248;23913;-52
2023/01/24 09:41:31;;;;;;;16.80;10.90;;;22.90;54.30;;;;;;221817;1261;22550;-54
2023/01/24 09:46:43;;;;;;;12.20;11.10;;;22.80;54.50;;;;;;222054;1267;22746;-53
2023/01/24 09:51:53;;;;;;;14.10;10.90;;;22.70;54.70;;;;;;221854;1270;24233;-55
2023/01/24 09:56:57;;;;;;;13.10;11.40;;;22.60;54.60;;;;;;221808;1264;24314;-56
2023/01/24 10:02:12;;;;;;;11.80;10.50;;;22.50;54.60;;;;;;221778;1258;24065;-57
2023/01/24 10:07:44;;;;;;;12.10;11.10;;;22.50;54.80;;;;;;221786;1264;23805;-57
2023/01/24 10:13:13;;;;;;;11.70;10.60;;;22.50;54.80;;;;;;221928;1264;25611;-58
2023/01/24 10:18:26;;;;;;;10.70;9.70;;;22.40;54.80;;;;;;221994;1257;22996;-58
2023/01/24 10:23:36;;;;;;;11.80;10.60;;;22.30;55.10;;;;;;221776;1267;25567;-57
2023/01/24 10:28:45;;;;;;;12.50;11.30;;;22.30;54.90;;;;;;221950;1263;24215;-52
2023/01/24 10:33:54;;;;;;;11.70;10.60;;;22.20;54.90;;;;;;221861;1270;24385;-54
2023/01/24 10:38:58;;;;;;;11.50;10.40;;;22.20;54.90;;;;;;221928;1263;22544;-54
2023/01/24 10:44:27;;;;;;;12.30;11.20;;;22.20;55.30;;;;;;221960;1270;25307;-52
2023/01/24 10:49:36;;;;;;;13.10;11.30;;;22.10;55.10;;;;;;221783;1263;22639;-56
2023/01/24 10:54:54;;;;;;;12.10;10.90;;;22.00;55.20;;;;;;221958;1261;25346;-55
2023/01/24 11:00:27;;;;;;;13.50;12.30;;;22.00;55.30;;;;;;221840;1267;22675;-57
2023/01/24 11:06:02;;;;;;;13.20;11.90;;;22.00;54.90;;;;;;222117;1267;23133;-57
2023/01/24 11:11:27;;;;;;;12.30;11.20;;;22.00;54.30;;;;;;221966;1264;22534;-56
2023/01/24 11:16:40;;;;;;;12.60;11.40;;;22.00;55.40;;;;;;222091;1264;24224;-51
2023/01/24 11:21:53;;;;;;;12.10;11.00;;;22.00;55.00;;;;;;222059;1264;22978;-56
2023/01/24 11:27:14;;;;;;;12.70;11.50;;;22.00;54.90;;;;;;221777;1263;23874;-46
2023/01/24 11:32:42;;;;;;;12.40;10.80;;;22.40;54.10;;;;;;222045;1263;26591;-44
2023/01/24 11:38:25;;;;;;;12.40;11.20;;;22.60;53.80;;;;;;221341;1264;22883;-44
2023/01/24 11:43:52;;;;;;;12.00;10.90;;;22.70;53.30;;;;;;229898;1264;22173;-46
2023/01/24 11:49:21;;;;;;;11.60;10.60;;;23.00;52.60;;;;;;227342;1267;22599;-46
2023/01/24 11:54:56;;;;;;;11.70;10.60;;;23.30;51.60;;;;;;222376;1271;22527;-45
2023/01/24 12:00:23;;;;;;;11.30;10.20;;;23.20;51.70;;;;;;221851;1260;22543;-48
2023/01/24 12:05:51;;;;;;;12.20;10.90;;;23.20;51.70;;;;;;221752;1267;24324;-46
2023/01/24 12:11:22;;;;;;;11.50;10.40;;;23.30;51.60;;;;;;221766;1271;25481;-50
2023/01/24 12:16:42;;;;;;;11.80;10.70;;;23.30;51.40;;;;;;222237;1270;24381;-46
2023/01/24 12:21:47;;;;;;;11.50;10.40;;;23.40;51.10;;;;;;221940;1264;25467;-46
2023/01/24 12:26:57;;;;;;;12.80;11.50;;;23.50;50.90;;;;;;221901;1264;22530;-47
2023/01/24 12:32:23;;;;;;;12.40;11.20;;;23.50;51.20;;;;;;221915;1252;24375;-49
2023/01/24 12:37:48;;;;;;;11.70;10.70;;;23.60;50.60;;;;;;221828;1264;22533;-46
2023/01/24 12:43:30;;;;;;;11.60;10.50;;;23.60;50.90;;;;;;221740;1263;24241;-46
2023/01/24 12:49:05;;;;;;;12.00;10.90;;;23.60;50.60;;;;;;222027;1259;22654;-50
2023/01/24 12:54:25;;;;;;;11.20;10.20;;;23.50;50.70;;;;;;221906;1263;22540;-45
2023/01/24 12:59:33;;;;;;;12.30;11.10;;;23.50;51.00;;;;;;221891;1264;24616;-45
2023/01/24 13:05:02;;;;;;;11.40;10.40;;;23.50;50.50;;;;;;221821;1263;23116;-46
2023/01/24 13:10:22;;;;;;;11.90;10.80;;;23.60;50.40;;;;;;222197;1256;24372;-48
2023/01/24 13:16:05;;;;;;;12.90;11.70;;;23.60;50.20;;;;;;222226;1263;22534;-46
2023/01/24 13:21:14;;;;;;;11.40;10.30;;;23.70;50.10;;;;;;221868;1267;22531;-47
2023/01/24 13:26:27;;;;;;;11.20;10.20;;;23.80;49.90;;;;;;222164;1266;22563;-47
2023/01/24 13:31:53;;;;;;;12.60;11.50;;;23.80;50.20;;;;;;221907;1256;25397;-44
2023/01/24 13:36:58;;;;;;;12.20;11.10;;;23.80;49.80;;;;;;221927;1264;22661;-47
2023/01/24 13:42:19;;;;;;;12.50;11.40;;;23.70;49.80;;;;;;221817;1271;22541;-46
2023/01/24 13:47:32;;;;;;;11.80;10.70;;;23.60;50.40;;;;;;221937;1269;25720;-47
2023/01/24 13:52:39;;;;;;;11.50;10.40;;;23.60;50.00;;;;;;221899;1253;24359;-50
2023/01/24 13:57:44;;;;;;;11.90;10.70;;;23.60;49.90;;;;;;221873;1259;22577;-47
2023/01/24 14:02:48;;;;;;;12.10;11.00;;;23.40;50.30;;;;;;221747;1264;22644;-48
2023/01/24 14:07:52;;;;;;;12.10;11.00;;;23.30;50.60;;;;;;221758;1271;182141;-46
2023/01/24 14:12:56;;;;;;;13.10;11.80;;;23.10;50.30;;;;;;221774;1271;22656;-48
2023/01/24 14:18:01;;;;;;;12.90;11.70;;;23.00;50.90;;;;;;221816;1271;23882;-47
2023/01/24 14:23:19;;;;;;;13.70;12.40;;;22.90;50.80;;;;;;221868;1264;25645;-45
2023/01/24 14:28:55;;;;;;;12.70;11.50;;;22.80;50.80;;;;;;221894;1256;25557;-47
2023/01/24 14:34:17;;;;;;;14.30;12.90;;;22.80;50.80;;;;;;221815;1263;26518;-48
2023/01/24 14:39:23;;;;;;;13.90;12.60;;;22.70;50.80;;;;;;221950;1260;22565;-46
2023/01/24 14:44:31;;;;;;;13.80;12.50;;;22.70;51.30;;;;;;223736;1266;22550;-48
2023/01/24 14:49:43;;;;;;;15.20;13.70;;;22.50;51.00;;;;;;222353;1270;22620;-47
2023/01/24 14:54:50;;;;;;;14.70;13.10;;;22.50;51.40;;;;;;222286;1257;24298;-45
2023/01/24 15:00:24;;;;;;;14.60;13.30;;;22.40;51.40;;;;;;222352;1262;25473;-44
2023/01/24 15:05:36;;;;;;;14.30;12.90;;;22.30;51.70;;;;;;220892;1272;22546;-47
2023/01/24 15:10:42;;;;;;;15.80;13.60;;;22.30;52.80;;;;;;220880;1277;25316;-48
2023/01/24 15:15:47;;;;;;;17.90;14.80;;;22.30;53.20;;;;;;220652;1254;22541;-51
2023/01/24 15:20:52;;;;;;;18.60;16.00;;;22.20;53.40;;;;;;220855;1278;25158;-49
2023/01/24 15:26:18;;;;;;;18.20;15.20;;;22.30;53.40;;;;;;220986;1262;24190;-45
2023/01/24 15:31:28;;;;;;;20.10;16.50;;;22.20;54.70;;;;;;221109;1267;24229;-46
2023/01/24 15:36:32;;;;;;;23.60;16.10;;;22.30;55.40;;;;;;220865;1270;25618;-45
2023/01/24 15:52:23;;;;;;;25.00;18.70;;;22.10;54.90;;;;;;221522;1247;22583;-52
2023/01/24 15:57:32;;;;;;;29.50;20.70;;;22.10;54.80;;;;;;221878;1250;24216;-50
2023/01/24 16:02:36;;;;;;;38.60;23.70;;;22.10;54.00;;;;;;221832;1263;22563;-48
2023/01/24 16:07:40;;;;;;;32.30;23.00;;;22.10;55.10;;;;;;221973;1263;25475;-48
2023/01/24 16:12:49;;;;;;;27.30;20.90;;;22.10;55.30;;;;;;222049;1267;23594;-47
2023/01/24 16:17:53;;;;;;;25.20;20.80;;;22.30;55.10;;;;;;222007;1259;22610;-47
2023/01/24 16:22:57;;;;;;;28.10;21.20;;;22.40;54.90;;;;;;222016;1263;23910;-44
2023/01/24 16:28:03;;;;;;;32.60;21.90;;;22.30;54.90;;;;;;221863;1270;26687;-48
2023/01/24 16:33:07;;;;;;;35.20;21.60;;;22.20;56.10;;;;;;221981;1265;25354;-46
2023/01/24 16:38:13;;;;;;;27.20;20.70;;;22.30;55.10;;;;;;221955;1271;22589;-49
2023/01/24 16:43:20;;;;;;;27.30;22.30;;;22.10;55.20;;;;;;222165;1256;22560;-49
2023/01/24 16:48:26;;;;;;;28.10;21.80;;;22.10;55.00;;;;;;221242;1269;22594;-49
2023/01/24 16:53:30;;;;;;;31.90;23.00;;;22.10;55.30;;;;;;221173;1269;24758;-52
2023/01/24 16:58:38;;;;;;;46.50;22.80;;;22.10;54.80;;;;;;221120;1272;22551;-49
2023/01/24 17:03:42;;;;;;;29.70;21.90;;;22.00;54.70;;;;;;221247;1263;22531;-49
2023/01/24 17:08:53;;;;;;;29.50;22.60;;;22.00;54.50;;;;;;221894;1250;24253;-49
2023/01/24 17:13:58;;;;;;;31.50;24.30;;;22.20;53.70;;;;;;221579;1248;23053;-58
2023/01/24 17:19:03;;;;;;;32.90;24.70;;;22.10;53.30;;;;;;221703;1247;22990;-46
2023/01/24 17:24:09;;;;;;;32.30;25.50;;;22.10;53.20;;;;;;221764;1263;25587;-43
2023/01/24 17:29:13;;;;;;;33.90;25.60;;;22.10;53.00;;;;;;221839;1263;25390;-47
2023/01/24 17:34:18;;;;;;;34.70;26.30;;;22.10;53.10;;;;;;221730;1261;26749;-43
2023/01/24 17:39:22;;;;;;;37.00;25.60;;;21.90;52.80;;;;;;221932;1263;22746;-50
2023/01/24 17:44:28;;;;;;;32.30;27.00;;;21.80;53.60;;;;;;222691;1266;22994;-53
2023/01/24 17:49:35;;;;;;;40.00;26.50;;;22.00;53.20;;;;;;222152;1256;23918;-52
2023/01/24 17:54:39;;;;;;;39.60;26.10;;;22.00;53.40;;;;;;221920;1264;22527;-50
2023/01/24 17:59:45;;;;;;;31.00;26.40;;;22.10;53.70;;;;;;222178;1250;25513;-54
2023/01/24 18:04:50;;;;;;;38.00;25.20;;;22.30;52.30;;;;;;222104;1256;25367;-53
2023/01/24 18:09:55;;;;;;;33.20;25.30;;;22.60;52.40;;;;;;221957;1270;22655;-49
2023/01/24 18:15:04;;;;;;;35.20;24.80;;;22.70;51.10;;;;;;222043;1264;24248;-50
2023/01/24 18:20:14;;;;;;;44.50;25.70;;;22.90;51.00;;;;;;221773;1262;22611;-51
2023/01/24 18:25:20;;;;;;;38.00;25.60;;;23.00;51.00;;;;;;222050;1262;25364;-53
2023/01/24 18:30:26;;;;;;;31.90;24.60;;;23.10;50.70;;;;;;221821;1250;22625;-51
2023/01/24 18:35:33;;;;;;;33.70;23.10;;;23.20;50.60;;;;;;222090;1264;26286;-51
2023/01/24 18:40:40;;;;;;;30.70;24.40;;;23.20;50.00;;;;;;222097;1262;22547;-49
2023/01/24 18:45:47;;;;;;;33.60;25.20;;;23.30;50.20;;;;;;221850;1267;24206;-47
2023/01/24 18:50:53;;;;;;;37.40;24.70;;;23.60;49.30;;;;;;221897;1259;24037;-51
2023/01/24 18:56:04;;;;;;;30.20;23.80;;;23.60;49.60;;;;;;221818;1270;23610;-51
2023/01/24 19:01:14;;;;;;;47.70;25.10;;;23.60;49.30;;;;;;221757;1255;22524;-49
2023/01/24 19:06:25;;;;;;;31.00;24.20;;;23.40;49.10;;;;;;222004;1254;22620;-52
2023/01/24 19:11:36;;;;;;;30.70;24.30;;;23.30;49.40;;;;;;222010;1251;23902;-52
2023/01/24 19:16:42;;;;;;;32.60;24.70;;;23.30;50.60;;;;;;221978;1259;25957;-53
2023/01/24 19:21:51;;;;;;;36.30;25.80;;;23.30;50.80;;;;;;222250;1259;24038;-52
2023/01/24 19:26:57;;;;;;;28.30;24.10;;;23.40;51.30;;;;;;222203;1256;22540;-51
2023/01/24 19:32:02;;;;;;;29.50;24.80;;;23.40;52.30;;;;;;222189;1257;22553;-51
2023/01/24 19:37:15;;;;;;;28.90;25.00;;;23.40;52.80;;;;;;221198;1271;22562;-52
2023/01/24 19:42:21;;;;;;;29.70;24.40;;;23.30;52.60;;;;;;221064;1268;22698;-51
2023/01/24 19:47:36;;;;;;;32.10;25.20;;;23.10;52.60;;;;;;220894;1267;23054;-50
2023/01/24 19:52:44;;;;;;;30.30;25.30;;;23.00;52.10;;;;;;221107;1255;24046;-48
2023/01/24 19:57:50;;;;;;;27.80;24.50;;;23.00;52.20;;;;;;222053;1263;24186;-47
2023/01/24 20:02:57;;;;;;;32.10;25.20;;;22.80;52.60;;;;;;221831;1257;24736;-47
2023/01/24 20:08:04;;;;;;;32.80;26.20;;;22.80;52.20;;;;;;221993;1248;24352;-48
2023/01/24 20:13:15;;;;;;;30.30;24.40;;;22.70;53.30;;;;;;221637;1266;25430;-47
2023/01/24 20:18:35;;;;;;;29.10;24.60;;;22.60;53.60;;;;;;221842;1263;24429;-46
2023/01/24 20:23:42;;;;;;;28.90;25.00;;;22.50;53.30;;;;;;222890;1267;25411;-47
2023/01/24 20:28:49;;;;;;;27.80;25.00;;;22.50;53.00;;;;;;221971;1263;24206;-46
2023/01/24 20:33:56;;;;;;;31.70;26.10;;;22.40;53.10;;;;;;221924;1268;22639;-46
2023/01/24 20:39:01;;;;;;;34.00;26.00;;;22.60;53.00;;;;;;221831;1256;25472;-49
2023/01/24 20:44:08;;;;;;;34.90;28.50;;;22.60;53.00;;;;;;221891;1259;24111;-49
2023/01/24 20:49:16;;;;;;;36.70;26.70;;;22.50;53.10;;;;;;221607;1269;26581;-50
2023/01/24 20:54:23;;;;;;;34.20;27.30;;;22.40;53.40;;;;;;222116;1263;23777;-47
2023/01/24 20:59:33;;;;;;;33.10;27.20;;;22.40;53.10;;;;;;222128;1266;24225;-48
2023/01/24 21:04:39;;;;;;;33.60;26.30;;;22.30;53.30;;;;;;221951;1269;25502;-47
2023/01/24 21:09:44;;;;;;;35.40;26.70;;;22.20;52.60;;;;;;221952;1248;24209;-47
2023/01/24 21:14:50;;;;;;;33.30;24.50;;;22.20;52.90;;;;;;222166;1257;25351;-45
2023/01/24 21:19:59;;;;;;;33.60;25.30;;;22.10;52.90;;;;;;221977;1262;22582;-49
2023/01/24 21:25:05;;;;;;;27.90;24.70;;;22.00;53.00;;;;;;221764;1263;24212;-48
2023/01/24 21:30:10;;;;;;;32.30;25.40;;;21.90;53.40;;;;;;221898;1248;24186;-52
2023/01/24 21:35:16;;;;;;;36.90;27.40;;;22.00;53.80;;;;;;221831;1263;22535;-49
2023/01/24 21:40:21;;;;;;;33.70;25.80;;;22.10;55.00;;;;;;221864;1263;22528;-54
2023/01/24 21:45:25;;;;;;;33.70;26.80;;;22.10;55.50;;;;;;221904;1263;24385;-50
2023/01/24 21:50:29;;;;;;;30.10;25.60;;;22.00;56.60;;;;;;221907;1263;23644;-44
2023/01/24 21:55:34;;;;;;;31.00;25.00;;;21.90;56.40;;;;;;221967;1263;22539;-47
2023/01/24 22:00:38;;;;;;;30.70;25.40;;;21.80;56.30;;;;;;221788;1269;25514;-45
2023/01/24 22:06:16;;;;;;;31.50;25.10;;;21.80;56.10;;;;;;221801;1266;22529;-46
2023/01/24 22:11:21;;;;;;;33.30;24.90;;;21.70;56.20;;;;;;222302;1257;24229;-46
2023/01/24 22:16:25;;;;;;;33.70;24.60;;;21.70;56.20;;;;;;222020;1259;23852;-48
2023/01/24 22:21:58;;;;;;;30.30;23.70;;;21.90;59.00;;;;;;221885;1253;24189;-49
2023/01/24 22:27:05;;;;;;;35.70;24.60;;;21.90;58.80;;;;;;221896;1263;22532;-47
2023/01/24 22:32:13;;;;;;;29.70;23.20;;;21.80;58.70;;;;;;221941;1267;24310;-49
2023/01/24 22:37:37;;;;;;;28.90;23.20;;;21.80;58.10;;;;;;221808;1263;22619;-52
2023/01/24 22:42:42;;;;;;;34.40;23.90;;;21.80;57.90;;;;;;221890;1257;22540;-45
2023/01/24 22:47:46;;;;;;;32.20;23.80;;;21.80;58.30;;;;;;221907;1253;23928;-42
2023/01/24 22:52:51;;;;;;;29.20;23.30;;;21.70;57.90;;;;;;221929;1268;24206;-42
2023/01/24 22:57:56;;;;;;;27.50;22.70;;;21.80;57.70;;;;;;222043;1269;26438;-43
2023/01/24 23:03:01;;;;;;;32.70;24.10;;;21.70;58.20;;;;;;221859;1269;23881;-43
2023/01/24 23:08:07;;;;;;;27.70;22.50;;;21.80;57.70;;;;;;221982;1261;25239;-42
2023/01/24 23:24:01;;;;;;;28.10;22.50;;;21.80;58.00;;;;;;221791;1259;23912;-44
2023/01/24 23:29:11;;;;;;;26.10;20.80;;;22.10;57.20;;;;;;221723;1257;24349;-44
2023/01/24 23:34:36;;;;;;;23.40;20.60;;;22.40;56.00;;;;;;221846;1271;24160;-43
2023/01/24 23:39:40;;;;;;;27.60;20.80;;;22.70;55.60;;;;;;221894;1269;22550;-44
2023/01/24 23:44:44;;;;;;;24.60;20.60;;;22.90;55.00;;;;;;221811;1271;22572;-43
2023/01/24 23:49:49;;;;;;;24.60;20.80;;;23.00;54.80;;;;;;222131;1259;22534;-48
2023/01/24 23:54:54;;;;;;;24.90;19.50;;;23.10;55.10;;;;;;221898;1258;22545;-46
2023/01/24 23:59:59;;;;;;;23.60;20.50;;;23.10;54.80;;;;;;222977;1253;22531;-46
